createdAt,value
2018-08-05T00:00:51.358Z,65.56
2018-08-05T00:03:20.656Z,65.44
2018-08-05T00:05:49.957Z,65.59
2018-08-05T00:08:19.261Z,66.45
2018-08-05T00:10:48.564Z,65.72
2018-08-05T00:13:17.942Z,65.24
2018-08-05T00:15:47.301Z,65.11
2018-08-05T00:18:16.590Z,65.80
2018-08-05T00:20:45.890Z,65.53
2018-08-05T00:23:15.171Z,66.22
2018-08-05T00:25:44.446Z,66.81
2018-08-05T00:28:13.598Z,67.03
2018-08-05T00:30:42.854Z,67.54
2018-08-05T00:33:12.384Z,67.58
2018-08-05T00:35:42.036Z,68.56
2018-08-05T00:38:11.297Z,67.12
2018-08-05T00:40:40.651Z,67.84
2018-08-05T00:43:10.015Z,69.00
2018-08-05T00:45:39.300Z,68.02
2018-08-05T00:48:08.763Z,68.46
2018-08-05T00:50:38.042Z,69.11
2018-08-05T00:53:07.318Z,68.64
2018-08-05T00:55:36.595Z,67.62
2018-08-05T00:58:06.369Z,67.27
2018-08-05T01:00:35.680Z,67.20
2018-08-05T01:03:04.968Z,67.57
2018-08-05T01:05:34.303Z,67.45
2018-08-05T01:08:03.854Z,65.92
2018-08-05T01:10:33.160Z,66.74
2018-08-05T01:13:02.454Z,67.00
2018-08-05T01:15:31.789Z,67.02
2018-08-05T01:18:01.019Z,66.47
2018-08-05T01:20:30.828Z,67.06
2018-08-05T01:23:00.106Z,66.83
2018-08-05T01:25:29.133Z,68.44
2018-08-05T01:27:58.458Z,68.42
2018-08-05T01:30:27.711Z,68.44
2018-08-05T01:32:56.969Z,68.69
2018-08-05T01:35:26.264Z,68.85
2018-08-05T01:37:55.569Z,69.15
2018-08-05T01:40:24.830Z,68.08
2018-08-05T01:42:54.473Z,67.89
2018-08-05T01:45:23.830Z,66.47
2018-08-05T01:47:53.103Z,66.31
2018-08-05T01:50:22.210Z,67.11
2018-08-05T01:52:51.536Z,66.85
2018-08-05T01:55:20.746Z,67.25
2018-08-05T01:57:50.066Z,66.21
2018-08-05T02:00:19.362Z,65.52
2018-08-05T02:02:48.662Z,66.34
2018-08-05T02:05:18.218Z,66.57
2018-08-05T02:07:47.542Z,67.37
2018-08-05T02:10:16.843Z,67.84
2018-08-05T02:12:45.909Z,67.49
2018-08-05T02:15:15.192Z,67.55
2018-08-05T02:17:44.460Z,67.42
2018-08-05T02:20:13.835Z,66.90
2018-08-05T02:22:43.080Z,66.44
2018-08-05T02:25:12.368Z,66.60
2018-08-05T02:27:42.388Z,65.76
2018-08-05T02:30:11.798Z,64.96
2018-08-05T02:32:41.078Z,65.65
2018-08-05T02:35:10.384Z,65.39
2018-08-05T02:37:39.875Z,64.61
2018-08-05T02:40:09.179Z,64.29
2018-08-05T02:42:38.481Z,64.25
2018-08-05T02:45:07.931Z,65.02
2018-08-05T02:47:37.192Z,64.30
2018-08-05T02:50:07.372Z,64.32
2018-08-05T02:52:36.624Z,64.68
2018-08-05T02:55:06.016Z,63.91
2018-08-05T02:57:35.285Z,63.86
2018-08-05T03:00:04.980Z,62.83
2018-08-05T03:02:34.256Z,61.85
2018-08-05T03:05:03.593Z,61.41
2018-08-05T03:07:32.843Z,60.66
2018-08-05T03:10:02.091Z,61.03
2018-08-05T03:12:31.514Z,60.19
2018-08-05T03:15:00.799Z,59.38
2018-08-05T03:17:30.266Z,59.58
2018-08-05T03:20:00.328Z,59.46
2018-08-05T03:22:29.606Z,59.79
2018-08-05T03:24:58.856Z,60.13
2018-08-05T03:27:28.172Z,59.81
2018-08-05T03:29:57.458Z,60.02
2018-08-05T03:32:26.970Z,59.97
2018-08-05T03:34:56.835Z,60.78
2018-08-05T03:37:26.088Z,60.39
2018-08-05T03:39:55.513Z,60.12
2018-08-05T03:42:24.809Z,60.18
2018-08-05T03:44:54.086Z,61.11
2018-08-05T03:47:23.358Z,61.01
2018-08-05T03:49:52.657Z,60.93
2018-08-05T03:52:21.962Z,60.88
2018-08-05T03:54:51.246Z,61.00
2018-08-05T03:57:21.012Z,59.82
2018-08-05T03:59:50.282Z,60.58
2018-08-05T04:02:19.519Z,58.69
2018-08-05T04:04:48.883Z,59.07
2018-08-05T04:07:18.181Z,59.26
2018-08-05T04:09:47.466Z,58.93
2018-08-05T04:12:16.753Z,59.33
2018-08-05T04:14:46.055Z,59.62
2018-08-05T04:17:15.363Z,60.42
2018-08-05T04:19:44.903Z,58.81
2018-08-05T04:22:14.170Z,58.54
2018-08-05T04:24:43.451Z,59.15
2018-08-05T04:27:12.974Z,58.42
2018-08-05T04:29:42.376Z,58.18
2018-08-05T04:32:11.719Z,57.69
2018-08-05T04:34:41.120Z,57.62
2018-08-05T04:37:10.422Z,57.52
2018-08-05T04:39:39.707Z,57.21
2018-08-05T04:42:09.314Z,57.85
2018-08-05T04:44:38.580Z,57.32
2018-08-05T04:47:08.153Z,55.75
2018-08-05T04:49:37.579Z,56.91
2018-08-05T04:52:06.886Z,56.36
2018-08-05T04:54:36.150Z,56.79
2018-08-05T04:57:05.535Z,55.88
2018-08-05T04:59:34.763Z,56.45
2018-08-05T05:02:04.026Z,56.15
2018-08-05T05:04:33.935Z,56.82
2018-08-05T05:07:03.193Z,56.82
2018-08-05T05:09:32.495Z,57.37
2018-08-05T05:12:01.827Z,56.04
2018-08-05T05:14:31.203Z,54.59
2018-08-05T05:17:00.447Z,55.18
2018-08-05T05:19:29.704Z,54.90
2018-08-05T05:21:58.970Z,55.81
2018-08-05T05:24:28.264Z,54.90
2018-08-05T05:26:57.809Z,54.46
2018-08-05T05:29:27.113Z,53.87
2018-08-05T05:31:56.471Z,54.48
2018-08-05T05:34:25.839Z,53.99
2018-08-05T05:36:55.527Z,53.86
2018-08-05T05:39:24.995Z,52.92
2018-08-05T05:41:54.315Z,53.14
2018-08-05T05:44:23.610Z,52.48
2018-08-05T05:46:52.908Z,53.31
2018-08-05T05:49:22.608Z,53.17
2018-08-05T05:51:51.887Z,53.25
2018-08-05T05:54:21.145Z,52.08
2018-08-05T05:56:50.537Z,51.48
2018-08-05T05:59:19.782Z,52.26
2018-08-05T06:01:49.091Z,51.42
2018-08-05T06:04:18.496Z,52.67
2018-08-05T06:06:47.770Z,51.68
2018-08-05T06:09:17.042Z,50.95
2018-08-05T06:11:46.722Z,50.79
2018-08-05T06:14:15.982Z,50.88
2018-08-05T06:16:45.234Z,52.61
2018-08-05T06:19:14.267Z,51.68
2018-08-05T06:21:43.622Z,51.00
2018-08-05T06:24:12.687Z,50.79
2018-08-05T06:26:42.275Z,51.30
2018-08-05T06:29:15.362Z,51.41
2018-08-05T06:31:45.133Z,51.65
2018-08-05T06:34:14.407Z,52.74
2018-08-05T06:36:43.703Z,50.77
2018-08-05T06:39:13.040Z,52.00
2018-08-05T06:41:42.324Z,52.60
2018-08-05T06:44:11.775Z,53.23
2018-08-05T06:46:41.065Z,52.37
2018-08-05T06:49:10.317Z,50.88
2018-08-05T06:51:39.561Z,49.52
2018-08-05T06:54:09.339Z,48.46
2018-08-05T06:56:38.799Z,48.17
2018-08-05T06:59:08.062Z,47.53
2018-08-05T07:01:37.371Z,46.92
2018-08-05T07:04:06.639Z,46.84
2018-08-05T07:06:35.895Z,46.34
2018-08-05T07:09:08.272Z,46.13
2018-08-05T07:11:37.587Z,46.21
2018-08-05T07:14:07.018Z,45.46
2018-08-05T07:16:36.996Z,46.24
2018-08-05T07:19:07.568Z,45.64
2018-08-05T07:21:36.825Z,44.69
2018-08-05T07:24:06.105Z,44.82
2018-08-05T07:26:35.363Z,43.68
2018-08-05T07:29:04.894Z,42.85
2018-08-05T07:31:34.226Z,42.68
2018-08-05T07:34:03.580Z,43.68
2018-08-05T07:36:32.833Z,43.10
2018-08-05T07:39:02.266Z,44.15
2018-08-05T07:41:31.523Z,43.30
2018-08-05T07:44:00.811Z,43.81
2018-08-05T07:46:30.126Z,43.23
2018-08-05T07:48:59.415Z,43.50
2018-08-05T07:51:28.686Z,42.42
2018-08-05T07:53:57.958Z,43.42
2018-08-05T07:56:27.295Z,42.18
2018-08-05T07:58:56.533Z,42.39
2018-08-05T08:01:26.241Z,42.29
2018-08-05T08:03:55.542Z,42.00
2018-08-05T08:06:24.845Z,42.70
2018-08-05T08:08:54.121Z,42.15
2018-08-05T08:11:23.445Z,40.95
2018-08-05T08:13:52.738Z,40.17
2018-08-05T08:16:22.046Z,39.91
2018-08-05T08:18:51.476Z,41.55
2018-08-05T08:21:20.784Z,43.31
2018-08-05T08:23:51.154Z,42.38
2018-08-05T08:26:20.416Z,41.38
2018-08-05T08:28:49.756Z,41.03
2018-08-05T08:31:19.156Z,39.39
2018-08-05T08:33:48.352Z,38.13
2018-08-05T08:36:17.636Z,38.22
2018-08-05T08:38:47.080Z,38.70
2018-08-05T08:41:16.358Z,39.86
2018-08-05T08:43:45.810Z,38.33
2018-08-05T08:46:15.561Z,38.26
2018-08-05T08:48:44.927Z,37.85
2018-08-05T08:51:14.441Z,36.44
2018-08-05T08:53:43.879Z,37.17
2018-08-05T08:56:13.172Z,39.22
2018-08-05T08:58:42.510Z,37.72
2018-08-05T09:01:11.861Z,37.17
2018-08-05T09:03:41.242Z,36.28
2018-08-05T09:06:10.577Z,36.17
2018-08-05T09:08:40.335Z,36.82
2018-08-05T09:11:09.978Z,36.53
2018-08-05T09:13:39.275Z,36.35
2018-08-05T09:16:08.701Z,36.35
2018-08-05T09:18:37.981Z,37.60
2018-08-05T09:21:07.512Z,36.69
2018-08-05T09:23:36.807Z,35.33
2018-08-05T09:26:06.139Z,35.50
2018-08-05T09:28:35.453Z,34.85
2018-08-05T09:31:04.941Z,34.35
2018-08-05T09:33:34.193Z,36.33
2018-08-05T09:36:03.611Z,36.67
2018-08-05T09:38:32.899Z,37.33
2018-08-05T09:41:02.268Z,36.69
2018-08-05T09:43:31.649Z,36.00
2018-08-05T09:46:00.758Z,35.21
2018-08-05T09:48:30.055Z,34.74
2018-08-05T09:50:59.607Z,34.30
2018-08-05T09:53:29.732Z,34.39
2018-08-05T09:55:59.043Z,34.67
2018-08-05T09:58:28.382Z,34.86
2018-08-05T10:00:57.635Z,33.98
2018-08-05T10:03:27.111Z,34.97
2018-08-05T10:05:56.492Z,35.19
2018-08-05T10:08:25.912Z,34.44
2018-08-05T10:10:55.371Z,36.59
2018-08-05T10:13:24.962Z,36.40
2018-08-05T10:15:54.629Z,36.28
2018-08-05T10:18:23.989Z,34.50
2018-08-05T10:20:53.310Z,33.85
2018-08-05T10:23:22.671Z,34.82
2018-08-05T10:25:52.025Z,34.69
2018-08-05T10:28:21.341Z,35.97
2018-08-05T10:30:50.677Z,36.07
2018-08-05T10:33:20.261Z,35.06
2018-08-05T10:35:49.519Z,35.46
2018-08-05T10:38:18.947Z,34.98
2018-08-05T10:40:48.223Z,33.89
2018-08-05T10:43:17.480Z,33.07
2018-08-05T10:45:47.666Z,34.60
2018-08-05T10:48:17.372Z,33.92
2018-08-05T10:50:46.651Z,33.85
2018-08-05T10:53:15.922Z,33.65
2018-08-05T10:55:45.763Z,31.68
2018-08-05T10:58:15.158Z,31.79
2018-08-05T11:00:44.829Z,32.61
2018-08-05T11:03:14.115Z,30.90
2018-08-05T11:05:43.386Z,31.52
2018-08-05T11:08:12.773Z,32.06
2018-08-05T11:10:42.092Z,31.10
2018-08-05T11:13:11.503Z,30.99
2018-08-05T11:15:40.750Z,31.23
2018-08-05T11:18:10.011Z,32.79
2018-08-05T11:20:39.506Z,30.47
2018-08-05T11:23:08.932Z,30.07
2018-08-05T11:25:38.221Z,30.29
2018-08-05T11:28:07.673Z,30.46
2018-08-05T11:30:36.978Z,31.58
2018-08-05T11:33:06.339Z,30.77
2018-08-05T11:35:35.632Z,29.54
2018-08-05T11:38:04.991Z,28.86
2018-08-05T11:40:34.338Z,29.65
2018-08-05T11:43:03.654Z,30.57
2018-08-05T11:45:33.596Z,30.68
2018-08-05T11:48:03.229Z,29.47
2018-08-05T11:50:32.614Z,29.54
2018-08-05T11:53:02.238Z,28.91
2018-08-05T11:55:31.544Z,30.31
2018-08-05T11:58:00.852Z,30.34
2018-08-05T12:00:30.158Z,30.21
2018-08-05T12:02:59.442Z,29.44
2018-08-05T12:05:28.731Z,29.41
2018-08-05T12:07:58.500Z,28.24
2018-08-05T12:10:27.774Z,28.30
2018-08-05T12:12:57.241Z,29.42
2018-08-05T12:15:26.557Z,29.24
2018-08-05T12:17:55.949Z,27.79
2018-08-05T12:20:25.301Z,27.96
2018-08-05T12:22:54.632Z,29.11
2018-08-05T12:25:24.020Z,28.66
2018-08-05T12:27:53.266Z,29.40
2018-08-05T12:30:23.070Z,28.95
2018-08-05T12:32:52.486Z,28.27
2018-08-05T12:35:21.923Z,28.52
2018-08-05T12:37:51.250Z,30.71
2018-08-05T12:40:20.513Z,32.16
2018-08-05T12:42:49.813Z,31.35
2018-08-05T12:45:19.288Z,33.09
2018-08-05T12:47:48.567Z,32.76
2018-08-05T12:50:17.928Z,31.18
2018-08-05T12:52:47.480Z,31.17
2018-08-05T12:55:16.760Z,30.51
2018-08-05T12:57:46.129Z,31.22
2018-08-05T13:00:15.485Z,30.29
2018-08-05T13:02:44.997Z,31.41
2018-08-05T13:05:14.366Z,32.05
2018-08-05T13:07:43.780Z,32.34
2018-08-05T13:10:13.050Z,31.94
2018-08-05T13:12:51.491Z,33.50
2018-08-05T13:15:27.630Z,34.40
2018-08-05T13:17:58.316Z,34.68
2018-08-05T13:20:27.606Z,35.74
2018-08-05T13:22:56.910Z,34.14
2018-08-05T13:25:27.924Z,32.61
2018-08-05T13:27:57.419Z,33.09
2018-08-05T13:30:26.687Z,32.02
2018-08-05T13:32:56.343Z,31.07
2018-08-05T13:35:25.627Z,31.36
2018-08-05T13:37:54.624Z,30.05
2018-08-05T13:40:23.929Z,30.55
2018-08-05T13:42:53.228Z,31.60
2018-08-05T13:45:22.560Z,31.49
2018-08-05T13:47:51.867Z,31.78
2018-08-05T13:50:21.322Z,32.56
2018-08-05T13:52:50.608Z,35.10
2018-08-05T13:55:20.563Z,35.93
2018-08-05T13:57:49.904Z,36.79
2018-08-05T14:00:19.226Z,37.37
2018-08-05T14:02:48.750Z,36.87
2018-08-05T14:05:18.148Z,38.64
2018-08-05T14:07:47.430Z,39.38
2018-08-05T14:10:16.791Z,37.97
2018-08-05T14:12:46.097Z,38.84
2018-08-05T14:15:15.491Z,37.81
2018-08-05T14:17:44.914Z,36.94
2018-08-05T14:20:14.262Z,37.00
2018-08-05T14:22:43.792Z,36.54
2018-08-05T14:25:13.177Z,35.33
2018-08-05T14:27:42.492Z,35.94
2018-08-05T14:30:11.872Z,36.05
2018-08-05T14:32:41.278Z,34.85
2018-08-05T14:35:10.636Z,35.46
2018-08-05T14:37:40.274Z,34.66
2018-08-05T14:40:10.038Z,34.92
2018-08-05T14:42:39.526Z,34.49
2018-08-05T14:45:08.982Z,34.26
2018-08-05T14:47:38.558Z,34.12
2018-08-05T14:50:07.875Z,34.98
2018-08-05T14:52:37.219Z,36.91
2018-08-05T14:55:06.587Z,37.87
2018-08-05T14:57:35.969Z,37.54
2018-08-05T15:00:07.180Z,38.05
2018-08-05T15:02:36.599Z,37.98
2018-08-05T15:05:06.344Z,37.25
2018-08-05T15:07:35.751Z,36.08
2018-08-05T15:10:05.038Z,36.33
2018-08-05T15:12:34.401Z,36.95
2018-08-05T15:15:03.897Z,36.53
2018-08-05T15:17:33.507Z,36.68
2018-08-05T15:20:02.820Z,36.34
2018-08-05T15:22:32.154Z,35.71
2018-08-05T15:25:01.616Z,34.42
2018-08-05T15:27:30.907Z,35.44
2018-08-05T15:30:00.222Z,34.81
2018-08-05T15:32:29.581Z,34.48
2018-08-05T15:34:58.901Z,35.19
2018-08-05T15:37:28.294Z,35.29
2018-08-05T15:39:57.963Z,35.15
2018-08-05T15:42:27.464Z,36.09
2018-08-05T15:44:56.798Z,37.00
2018-08-05T15:47:26.255Z,36.44
2018-08-05T15:49:55.754Z,37.39
2018-08-05T15:52:25.118Z,36.13
2018-08-05T15:54:54.534Z,37.92
2018-08-05T15:57:23.819Z,37.91
2018-08-05T15:59:53.287Z,37.10
2018-08-05T16:02:22.806Z,37.69
2018-08-05T16:04:52.186Z,37.00
2018-08-05T16:07:21.708Z,36.66
2018-08-05T16:09:51.207Z,37.81
2018-08-05T16:12:20.514Z,38.09
2018-08-05T16:14:49.876Z,37.32
2018-08-05T16:17:19.412Z,38.27
2018-08-05T16:19:48.753Z,37.51
2018-08-05T16:22:18.048Z,37.98
2018-08-05T16:24:47.407Z,37.34
2018-08-05T16:27:16.479Z,38.49
2018-08-05T16:29:45.775Z,38.35
2018-08-05T16:32:15.344Z,38.37
2018-08-05T16:34:44.883Z,38.49
2018-08-05T16:37:14.547Z,38.92
2018-08-05T16:39:43.803Z,38.89
2018-08-05T16:42:13.414Z,38.00
2018-08-05T16:44:42.815Z,38.36
2018-08-05T16:47:12.330Z,38.51
2018-08-05T16:49:42.057Z,38.67
2018-08-05T16:52:11.375Z,38.14
2018-08-05T16:54:40.815Z,38.67
2018-08-05T16:57:10.261Z,38.34
2018-08-05T16:59:39.698Z,38.31
2018-08-05T17:02:09.123Z,38.77
2018-08-05T17:04:38.615Z,39.09
2018-08-05T17:07:07.914Z,39.16
2018-08-05T17:09:37.312Z,40.10
2018-08-05T17:12:06.771Z,40.50
2018-08-05T17:14:36.233Z,39.46
2018-08-05T17:17:05.925Z,39.15
2018-08-05T17:19:35.190Z,40.57
2018-08-05T17:22:04.611Z,40.18
2018-08-05T17:24:34.038Z,39.72
2018-08-05T17:27:03.501Z,40.02
2018-08-05T17:29:33.077Z,39.66
2018-08-05T17:32:02.438Z,40.49
2018-08-05T17:34:31.767Z,40.34
2018-08-05T17:37:01.130Z,41.16
2018-08-05T17:39:30.514Z,41.77
2018-08-05T17:42:00.124Z,41.42
2018-08-05T17:44:29.635Z,41.98
2018-08-05T17:46:59.178Z,41.89
2018-08-05T17:49:28.373Z,40.74
2018-08-05T17:51:58.198Z,41.94
2018-08-05T17:54:27.607Z,41.41
2018-08-05T17:56:57.053Z,42.38
2018-08-05T17:59:26.715Z,41.58
2018-08-05T18:01:56.261Z,42.16
2018-08-05T18:04:25.655Z,41.34
2018-08-05T18:06:55.248Z,41.78
2018-08-05T18:09:24.610Z,41.08
2018-08-05T18:11:53.933Z,41.58
2018-08-05T18:14:23.276Z,41.48
2018-08-05T18:16:52.693Z,41.60
2018-08-05T18:19:22.221Z,42.16
2018-08-05T18:21:51.839Z,41.58
2018-08-05T18:24:21.676Z,42.10
2018-08-05T18:26:50.932Z,42.00
2018-08-05T18:29:20.278Z,41.15
2018-08-05T18:31:49.606Z,41.81
2018-08-05T18:34:18.904Z,42.32
2018-08-05T18:36:48.220Z,42.34
2018-08-05T18:39:17.582Z,44.04
2018-08-05T18:41:46.924Z,44.96
2018-08-05T18:44:16.295Z,44.13
2018-08-05T18:46:46.150Z,44.48
2018-08-05T18:49:15.511Z,44.91
2018-08-05T18:51:44.866Z,45.45
2018-08-05T18:54:14.977Z,46.49
2018-08-05T18:56:44.368Z,46.13
2018-08-05T18:59:13.705Z,46.25
2018-08-05T19:01:43.108Z,46.41
2018-08-05T19:04:12.424Z,46.93
2018-08-05T19:06:41.865Z,47.41
2018-08-05T19:09:12.437Z,47.29
2018-08-05T19:11:42.269Z,47.69
2018-08-05T19:14:11.577Z,48.35
2018-08-05T19:16:41.457Z,47.91
2018-08-05T19:19:15.024Z,48.34
2018-08-05T19:21:44.386Z,48.15
2018-08-05T19:24:15.161Z,50.29
2018-08-05T19:26:45.915Z,49.99
2018-08-05T19:29:18.134Z,50.63
2018-08-05T19:31:49.308Z,50.94
2018-08-05T19:34:21.574Z,51.30
2018-08-05T19:36:52.762Z,50.58
2018-08-05T19:39:22.166Z,50.67
2018-08-05T19:41:51.765Z,51.39
2018-08-05T19:44:21.506Z,51.50
2018-08-05T19:46:50.812Z,51.13
2018-08-05T19:49:20.206Z,52.03
2018-08-05T19:51:49.566Z,52.51
2018-08-05T19:54:19.115Z,52.14
2018-08-05T19:56:48.547Z,52.07
2018-08-05T19:59:17.902Z,51.88
2018-08-05T20:01:47.486Z,51.88
2018-08-05T20:04:16.851Z,51.78
2018-08-05T20:06:46.690Z,52.04
2018-08-05T20:09:16.060Z,52.66
2018-08-05T20:11:45.383Z,52.42
2018-08-05T20:14:14.779Z,53.10
2018-08-05T20:16:44.107Z,52.95
2018-08-05T20:19:13.525Z,53.05
2018-08-05T20:21:42.979Z,53.76
2018-08-05T20:24:12.459Z,53.09
2018-08-05T20:26:41.758Z,53.80
2018-08-05T20:29:11.499Z,54.27
2018-08-05T20:31:41.563Z,54.46
2018-08-05T20:34:11.021Z,54.20
2018-08-05T20:36:40.399Z,53.33
2018-08-05T20:39:13.119Z,53.95
2018-08-05T20:41:43.245Z,53.97
2018-08-05T20:44:13.169Z,53.70
2018-08-05T20:46:42.536Z,53.85
2018-08-05T20:49:12.402Z,55.17
2018-08-05T20:51:41.737Z,55.24
2018-08-05T20:54:11.074Z,54.44
2018-08-05T20:56:40.702Z,55.09
2018-08-05T20:59:10.092Z,54.13
2018-08-05T21:01:39.996Z,54.25
2018-08-05T21:04:10.050Z,54.94
2018-08-05T21:06:39.132Z,54.42
2018-08-05T21:09:10.982Z,55.27
2018-08-05T21:11:40.452Z,55.81
2018-08-05T21:14:10.010Z,55.34
2018-08-05T21:16:40.288Z,55.43
2018-08-05T21:19:09.593Z,55.26
2018-08-05T21:21:38.969Z,54.90
2018-08-05T21:24:08.296Z,55.08
2018-08-05T21:26:37.642Z,55.10
2018-08-05T21:29:06.896Z,55.51
2018-08-05T21:31:36.936Z,55.72
2018-08-05T21:34:06.419Z,55.53
2018-08-05T21:36:35.753Z,56.11
2018-08-05T21:39:07.378Z,55.85
2018-08-05T21:41:36.759Z,57.42
2018-08-05T21:44:06.263Z,57.28
2018-08-05T21:46:35.583Z,56.73
2018-08-05T21:49:04.876Z,57.64
2018-08-05T21:51:34.206Z,56.86
2018-08-05T21:54:03.999Z,57.40
2018-08-05T21:56:33.595Z,56.72
2018-08-05T21:59:02.978Z,57.94
2018-08-05T22:01:32.277Z,58.04
2018-08-05T22:04:01.903Z,57.92
2018-08-05T22:06:31.446Z,58.24
2018-08-05T22:09:00.759Z,58.73
2018-08-05T22:11:30.042Z,58.43
2018-08-05T22:13:59.418Z,58.91
2018-08-05T22:16:28.970Z,58.71
2018-08-05T22:18:58.278Z,59.49
2018-08-05T22:21:27.579Z,59.68
2018-08-05T22:23:56.924Z,59.65
2018-08-05T22:26:26.431Z,59.94
2018-08-05T22:28:55.674Z,59.98
2018-08-05T22:31:25.028Z,60.45
2018-08-05T22:33:54.371Z,60.06
2018-08-05T22:36:23.899Z,60.37
2018-08-05T22:38:53.346Z,59.87
2018-08-05T22:41:23.191Z,60.48
2018-08-05T22:43:52.552Z,60.39
2018-08-05T22:46:21.865Z,59.51
2018-08-05T22:48:51.206Z,59.41
2018-08-05T22:51:20.466Z,59.97
2018-08-05T22:53:49.778Z,60.31
2018-08-05T22:56:19.195Z,60.27
2018-08-05T22:58:48.546Z,60.70
2018-08-05T23:01:17.983Z,60.48
2018-08-05T23:03:47.268Z,60.54
2018-08-05T23:06:16.610Z,60.64
2018-08-05T23:08:45.933Z,60.97
2018-08-05T23:11:15.202Z,61.77
2018-08-05T23:13:44.464Z,61.05
2018-08-05T23:16:13.825Z,61.77
2018-08-05T23:18:43.113Z,62.08
2018-08-05T23:21:12.454Z,61.35
2018-08-05T23:23:42.221Z,61.71
2018-08-05T23:26:11.507Z,61.72
2018-08-05T23:28:40.795Z,61.44
2018-08-05T23:31:10.155Z,61.93
2018-08-05T23:33:39.435Z,61.54
2018-08-05T23:36:08.812Z,62.40
2018-08-05T23:38:38.469Z,62.23
2018-08-05T23:41:07.797Z,63.40
2018-08-05T23:43:37.162Z,63.98
2018-08-05T23:46:06.980Z,63.69
2018-08-05T23:48:36.256Z,62.79
2018-08-05T23:51:05.572Z,63.65
2018-08-05T23:53:34.832Z,63.31
2018-08-05T23:56:04.178Z,63.03
2018-08-05T23:58:33.510Z,62.79
